Time;durP1;ratioP1;P1;durP2;ratioP2;P2;SDS_P1;SDS_P2;PMS_P1;PMS_P2;Temp;Humidity;BMP_temperature;BMP_pressure;BME280_temperature;BME280_humidity;BME280_pressure;Samples;Min_cycle;Max_cycle;Signal;HPM_P1;HPM_P2
2022/11/05 00:10:03;;;;;;;0.70;0.70;;;;;7.30;95634.00;;;;5076794;28;20191;-53
2022/11/05 00:18:00;;;;;;;0.53;0.53;;;;;7.40;95646.00;;;;5094674;28;20202;-53
2022/11/05 00:20:27;;;;;;;0.60;0.60;;;;;7.50;95649.00;;;;5094525;28;20194;-53
2022/11/05 00:25:56;;;;;;;0.70;0.70;;;;;7.60;95651.00;;;;5094356;28;20555;-53
2022/11/05 00:28:25;;;;;;;0.50;0.50;;;;;7.60;95657.00;;;;5094405;28;20481;-53
2022/11/05 00:30:52;;;;;;;0.60;0.60;;;;;7.60;95652.00;;;;5094257;28;20306;-53
2022/11/05 00:33:19;;;;;;;0.70;0.70;;;;;7.60;95658.00;;;;5094287;28;20217;-54
2022/11/05 00:35:49;;;;;;;0.60;0.60;;;;;7.60;95650.00;;;;5094278;28;20194;-52
2022/11/05 00:38:16;;;;;;;0.50;0.50;;;;;7.60;95656.00;;;;5094339;28;20466;-52
2022/11/05 00:40:45;;;;;;;0.70;0.70;;;;;7.50;95655.00;;;;5076392;28;20211;-53
2022/11/05 00:45:57;;;;;;;0.60;0.60;;;;;7.40;95661.00;;;;5094184;28;20221;-53
2022/11/05 00:51:09;;;;;;;0.60;0.60;;;;;7.30;95658.00;;;;5094147;28;20210;-55
2022/11/05 00:53:37;;;;;;;0.60;0.60;;;;;7.50;95668.00;;;;5094152;28;20202;-54
2022/11/05 00:56:04;;;;;;;0.60;0.60;;;;;7.40;95665.00;;;;5094135;28;20195;-56
2022/11/05 00:58:31;;;;;;;0.60;0.60;;;;;7.40;95664.00;;;;5076353;28;20195;-54
2022/11/05 01:00:59;;;;;;;0.60;0.60;;;;;7.40;95671.00;;;;5094002;28;20651;-55
2022/11/05 01:03:29;;;;;;;0.50;0.50;;;;;7.50;95682.00;;;;5093923;28;20285;-54
2022/11/05 01:05:57;;;;;;;0.60;0.60;;;;;7.50;95682.00;;;;5076214;28;20195;-59
2022/11/05 01:08:27;;;;;;;0.63;0.63;;;;;7.50;95685.00;;;;5093947;28;20232;-55
2022/11/05 01:10:57;;;;;;;0.90;0.90;;;;;7.60;95684.00;;;;5093882;28;20194;-57
2022/11/05 01:13:26;;;;;;;0.60;0.60;;;;;7.70;95693.00;;;;5094563;28;20233;-52
2022/11/05 01:15:53;;;;;;;0.50;0.50;;;;;7.60;95689.00;;;;5097439;28;20198;-52
2022/11/05 01:18:21;;;;;;;0.50;0.50;;;;;7.70;95701.00;;;;5097438;28;20288;-52
2022/11/05 01:20:49;;;;;;;0.50;0.50;;;;;7.60;95699.00;;;;5079557;28;20199;-57
2022/11/05 01:23:18;;;;;;;0.60;0.60;;;;;7.50;95701.00;;;;5079449;28;20227;-52
2022/11/05 01:25:45;;;;;;;0.57;0.57;;;;;7.60;95711.00;;;;5097166;28;20236;-52
2022/11/05 01:28:12;;;;;;;0.50;0.50;;;;;7.40;95702.00;;;;5097225;28;20642;-53
2022/11/05 01:30:39;;;;;;;0.60;0.60;;;;;7.40;95698.00;;;;5097111;28;20240;-53
2022/11/05 01:33:06;;;;;;;0.60;0.60;;;;;7.40;95699.00;;;;5097165;28;20206;-52
2022/11/05 01:35:33;;;;;;;0.70;0.70;;;;;7.40;95702.00;;;;5097093;28;20271;-54
2022/11/05 01:38:02;;;;;;;0.60;0.60;;;;;7.50;95709.00;;;;5079171;28;20250;-54
2022/11/05 01:40:29;;;;;;;0.90;0.90;;;;;7.50;95714.00;;;;5097063;28;20191;-53
2022/11/05 01:42:56;;;;;;;0.57;0.57;;;;;7.50;95720.00;;;;5097173;28;20314;-57
2022/11/05 01:45:24;;;;;;;1.33;1.23;;;;;7.50;95717.00;;;;5097080;28;20214;-52
2022/11/05 01:47:59;;;;;;;0.70;0.70;;;;;7.60;95704.00;;;;5079118;28;20269;-53
2022/11/05 01:50:36;;;;;;;0.57;0.57;;;;;7.60;95702.00;;;;5096910;28;20468;-53
2022/11/05 01:53:08;;;;;;;0.70;0.70;;;;;7.60;95711.00;;;;5096810;28;20214;-53
2022/11/05 01:55:39;;;;;;;0.60;0.60;;;;;7.70;95711.00;;;;5096691;28;20288;-52
2022/11/05 01:58:09;;;;;;;0.53;0.53;;;;;7.70;95706.00;;;;5096621;28;20201;-52
2022/11/05 02:00:36;;;;;;;0.50;0.50;;;;;7.70;95709.00;;;;5079019;28;20639;-54
2022/11/05 02:03:04;;;;;;;0.60;0.60;;;;;7.70;95708.00;;;;5096610;28;20202;-52
2022/11/05 02:05:32;;;;;;;0.50;0.50;;;;;7.60;95706.00;;;;5096743;28;20301;-53
2022/11/05 02:07:59;;;;;;;0.50;0.50;;;;;7.60;95725.00;;;;5096636;28;20194;-53
2022/11/05 02:10:27;;;;;;;0.50;0.50;;;;;7.60;95719.00;;;;5096523;28;20210;-55
2022/11/05 02:12:53;;;;;;;0.60;0.60;;;;;7.70;95717.00;;;;5096637;28;20224;-57
2022/11/05 02:15:29;;;;;;;0.70;0.70;;;;;7.60;95723.00;;;;5096565;28;20229;-55
2022/11/05 02:18:03;;;;;;;0.70;0.70;;;;;7.60;95724.00;;;;5096612;28;20190;-52
2022/11/05 02:20:40;;;;;;;0.50;0.50;;;;;7.60;95727.00;;;;5096515;28;20194;-54
2022/11/05 02:23:37;;;;;;;0.53;0.53;;;;;7.60;95736.00;;;;5096506;28;20214;-53
2022/11/05 02:26:40;;;;;;;0.80;0.80;;;;;7.60;95729.00;;;;5077242;28;20202;-54
2022/11/05 02:29:39;;;;;;;0.63;0.63;;;;;7.60;95727.00;;;;5066415;28;20232;-56
2022/11/05 02:32:14;;;;;;;0.53;0.53;;;;;7.70;95732.00;;;;5096314;28;20218;-56
2022/11/05 02:34:52;;;;;;;1.10;1.10;;;;;7.70;95728.00;;;;5096243;28;20233;-52
2022/11/05 02:37:30;;;;;;;0.50;0.50;;;;;7.70;95728.00;;;;5096137;28;20218;-52
2022/11/05 02:40:13;;;;;;;0.80;0.80;;;;;7.70;95735.00;;;;5096173;28;20206;-52
2022/11/05 02:42:46;;;;;;;0.60;0.60;;;;;7.70;95729.00;;;;5095982;28;20268;-53
2022/11/05 02:45:25;;;;;;;0.70;0.70;;;;;7.70;95721.00;;;;5096022;28;20234;-55
2022/11/05 02:48:00;;;;;;;0.80;0.80;;;;;7.70;95732.00;;;;5096119;28;20259;-60
2022/11/05 02:50:34;;;;;;;0.80;0.80;;;;;7.70;95730.00;;;;5096090;28;20186;-54
2022/11/05 02:53:11;;;;;;;0.60;0.60;;;;;7.70;95737.00;;;;5078405;28;20194;-53
2022/11/05 02:55:41;;;;;;;0.60;0.60;;;;;7.80;95731.00;;;;5095929;28;20267;-52
2022/11/05 02:58:09;;;;;;;0.70;0.70;;;;;7.80;95733.00;;;;5095889;28;20224;-54
2022/11/05 03:00:44;;;;;;;0.60;0.60;;;;;7.80;95730.00;;;;5095708;28;20228;-54
2022/11/05 03:03:17;;;;;;;0.60;0.60;;;;;7.70;95736.00;;;;5095830;28;20194;-52
2022/11/05 03:06:05;;;;;;;0.70;0.70;;;;;7.60;95732.00;;;;5078044;28;20233;-53
2022/11/05 03:08:44;;;;;;;0.50;0.50;;;;;7.60;95740.00;;;;5095731;28;20194;-53
2022/11/05 03:11:15;;;;;;;0.60;0.60;;;;;7.60;95736.00;;;;5095704;28;20225;-53
2022/11/05 03:13:51;;;;;;;0.70;0.70;;;;;7.60;95740.00;;;;5095680;28;20297;-53
2022/11/05 03:16:21;;;;;;;0.87;0.87;;;;;7.60;95749.00;;;;5095489;28;20206;-52
2022/11/05 03:18:57;;;;;;;0.67;0.67;;;;;7.60;95748.00;;;;5095661;28;20222;-56
2022/11/05 03:21:33;;;;;;;0.70;0.70;;;;;7.60;95752.00;;;;5095480;28;20210;-56
2022/11/05 03:24:05;;;;;;;0.60;0.60;;;;;7.60;95753.00;;;;5095440;28;20280;-53
2022/11/05 03:26:37;;;;;;;0.70;0.70;;;;;7.70;95751.00;;;;5095409;28;20229;-52
2022/11/05 03:29:08;;;;;;;0.73;0.73;;;;;7.60;95759.00;;;;5095340;28;20255;-52
2022/11/05 03:31:38;;;;;;;0.80;0.80;;;;;7.60;95760.00;;;;5095319;28;20190;-52
2022/11/05 03:34:09;;;;;;;0.50;0.50;;;;;7.70;95759.00;;;;5095126;28;20221;-53
2022/11/05 03:36:40;;;;;;;0.83;0.83;;;;;7.80;95761.00;;;;5077248;28;20195;-53
2022/11/05 03:39:11;;;;;;;1.17;1.07;;;;;7.80;95773.00;;;;5095013;28;20223;-53
2022/11/05 03:41:45;;;;;;;0.50;0.50;;;;;7.80;95776.00;;;;5095225;28;20529;-53
2022/11/05 03:44:14;;;;;;;0.60;0.60;;;;;7.80;95777.00;;;;5094969;28;20289;-55
2022/11/05 03:46:48;;;;;;;0.50;0.50;;;;;7.60;95784.00;;;;5095273;28;20209;-53
2022/11/05 03:49:20;;;;;;;0.63;0.63;;;;;7.50;95783.00;;;;5077481;28;20202;-53
2022/11/05 03:51:54;;;;;;;0.50;0.50;;;;;7.50;95794.00;;;;5095270;28;20251;-54
2022/11/05 03:54:21;;;;;;;0.50;0.50;;;;;7.40;95791.00;;;;5095060;28;20629;-54
2022/11/05 03:57:00;;;;;;;0.83;0.83;;;;;7.50;95793.00;;;;5094949;28;20274;-55
2022/11/05 03:59:28;;;;;;;0.50;0.50;;;;;7.50;95783.00;;;;5077075;28;20194;-55
2022/11/05 04:01:55;;;;;;;0.60;0.60;;;;;7.50;95805.00;;;;5094804;28;20214;-60
2022/11/05 04:04:22;;;;;;;0.60;0.60;;;;;7.40;95801.00;;;;5077025;28;20613;-54
2022/11/05 04:15:05;;;;;;;0.80;0.80;;;;;7.30;95817.00;;;;5076986;28;20531;-53
2022/11/05 04:17:32;;;;;;;0.60;0.60;;;;;7.30;95819.00;;;;5094769;28;20221;-54
2022/11/05 04:25:29;;;;;;;0.67;0.67;;;;;7.30;95819.00;;;;5094587;28;20226;-55
2022/11/05 04:27:59;;;;;;;0.60;0.60;;;;;7.30;95818.00;;;;5094722;28;20201;-54
2022/11/05 04:30:26;;;;;;;0.60;0.60;;;;;7.30;95821.00;;;;5076721;28;20515;-53
2022/11/05 04:33:01;;;;;;;0.60;0.60;;;;;7.30;95828.00;;;;5094574;28;20642;-55
2022/11/05 04:35:30;;;;;;;0.60;0.60;;;;;7.10;95821.00;;;;5094420;28;20222;-52
2022/11/05 04:37:57;;;;;;;0.53;0.53;;;;;7.30;95823.00;;;;5094364;28;20217;-52
2022/11/05 04:40:24;;;;;;;0.77;0.70;;;;;7.30;95827.00;;;;5076426;28;20542;-53
2022/11/05 04:42:52;;;;;;;0.60;0.60;;;;;7.30;95829.00;;;;5094292;28;20194;-53
2022/11/05 04:45:19;;;;;;;0.70;0.70;;;;;7.30;95831.00;;;;5094041;28;20222;-52
2022/11/05 04:47:46;;;;;;;0.60;0.60;;;;;7.30;95831.00;;;;5093469;28;20198;-53
2022/11/05 04:50:13;;;;;;;0.70;0.70;;;;;7.40;95833.00;;;;5094056;28;20201;-52
2022/11/05 04:52:40;;;;;;;0.80;0.80;;;;;7.40;95839.00;;;;5094102;28;20198;-53
2022/11/05 04:55:09;;;;;;;0.70;0.70;;;;;7.50;95839.00;;;;5093994;28;20213;-53
2022/11/05 04:57:36;;;;;;;0.63;0.63;;;;;7.50;95837.00;;;;5093892;28;20230;-54
2022/11/05 05:00:05;;;;;;;0.83;0.83;;;;;7.50;95834.00;;;;5093981;28;20194;-59
2022/11/05 05:02:32;;;;;;;0.70;0.70;;;;;7.60;95838.00;;;;5093831;28;20229;-52
2022/11/05 05:04:59;;;;;;;0.97;0.97;;;;;7.60;95840.00;;;;5093783;28;20226;-53
2022/11/05 05:07:27;;;;;;;0.83;0.83;;;;;7.60;95839.00;;;;5093822;28;20280;-53
2022/11/05 05:09:55;;;;;;;2.00;1.27;;;;;7.60;95846.00;;;;5093976;28;20209;-55
2022/11/05 05:12:21;;;;;;;0.50;0.50;;;;;7.60;95854.00;;;;5076216;28;20215;-52
2022/11/05 05:14:49;;;;;;;0.70;0.70;;;;;7.60;95851.00;;;;5093808;28;20283;-53
2022/11/05 05:17:16;;;;;;;0.63;0.63;;;;;7.70;95854.00;;;;5093734;28;20193;-54
2022/11/05 05:22:28;;;;;;;0.80;0.80;;;;;7.70;95859.00;;;;5076121;28;20203;-53
2022/11/05 05:24:55;;;;;;;0.50;0.50;;;;;7.70;95871.00;;;;5093567;28;20711;-54
2022/11/05 05:27:24;;;;;;;0.90;0.90;;;;;7.70;95864.00;;;;5093688;28;20202;-53
2022/11/05 05:29:54;;;;;;;0.93;0.93;;;;;7.70;95869.00;;;;5075781;28;20238;-53
2022/11/05 05:32:20;;;;;;;0.60;0.60;;;;;7.70;95872.00;;;;5093640;28;20197;-54
2022/11/05 05:34:47;;;;;;;0.80;0.80;;;;;7.70;95871.00;;;;5093625;28;20194;-53
2022/11/05 05:37:14;;;;;;;0.70;0.70;;;;;7.70;95878.00;;;;5093607;28;20301;-54
2022/11/05 05:39:43;;;;;;;0.60;0.60;;;;;7.70;95873.00;;;;5093546;28;20195;-57
2022/11/05 05:42:10;;;;;;;0.80;0.80;;;;;7.70;95877.00;;;;5093443;28;20279;-57
2022/11/05 05:44:38;;;;;;;0.70;0.70;;;;;7.70;95885.00;;;;5093317;28;20218;-59
2022/11/05 05:47:05;;;;;;;0.60;0.60;;;;;7.80;95883.00;;;;5075630;28;20305;-57
2022/11/05 05:49:32;;;;;;;0.73;0.73;;;;;7.80;95888.00;;;;5093297;28;20209;-52
2022/11/05 05:51:58;;;;;;;1.17;1.07;;;;;7.70;95884.00;;;;5075627;28;20197;-53
2022/11/05 05:54:25;;;;;;;0.60;0.60;;;;;7.70;95889.00;;;;5075650;28;20202;-53
2022/11/05 05:56:52;;;;;;;0.90;0.90;;;;;7.50;95889.00;;;;5093255;28;20186;-52
2022/11/05 05:59:19;;;;;;;0.43;0.43;;;;;7.50;95892.00;;;;5093809;28;20214;-52
2022/11/05 06:01:46;;;;;;;0.60;0.60;;;;;7.50;95899.00;;;;5096777;28;20194;-55
2022/11/05 06:04:13;;;;;;;0.53;0.53;;;;;7.50;95907.00;;;;5096618;28;20697;-53
2022/11/05 06:06:40;;;;;;;0.60;0.60;;;;;7.50;95899.00;;;;5096683;28;20209;-52
2022/11/05 06:09:07;;;;;;;0.50;0.50;;;;;7.50;95905.00;;;;5096549;28;20287;-53
2022/11/05 06:11:34;;;;;;;0.60;0.60;;;;;7.50;95910.00;;;;5096597;28;20199;-53
2022/11/05 06:14:01;;;;;;;0.73;0.73;;;;;7.50;95912.00;;;;5096595;28;20190;-53
2022/11/05 06:16:28;;;;;;;0.60;0.60;;;;;7.50;95926.00;;;;5096574;28;20213;-53
2022/11/05 06:18:55;;;;;;;0.70;0.70;;;;;7.60;95910.00;;;;5096474;28;20252;-53
2022/11/05 06:21:22;;;;;;;0.60;0.60;;;;;7.40;95922.00;;;;5096460;28;20194;-57
2022/11/05 06:23:51;;;;;;;1.03;1.03;;;;;7.50;95939.00;;;;5096317;28;20223;-52
2022/11/05 06:26:18;;;;;;;0.67;0.67;;;;;7.50;95941.00;;;;5078571;28;20326;-53
2022/11/05 06:28:48;;;;;;;0.60;0.60;;;;;7.60;95944.00;;;;5096290;28;20596;-59
2022/11/05 06:31:15;;;;;;;0.60;0.60;;;;;7.50;95940.00;;;;5096201;28;20225;-53
2022/11/05 06:33:42;;;;;;;1.07;1.07;;;;;7.70;95943.00;;;;5096304;28;20348;-53
2022/11/05 06:36:14;;;;;;;0.60;0.60;;;;;7.70;95948.00;;;;5096252;28;20194;-53
2022/11/05 06:38:43;;;;;;;0.90;0.90;;;;;7.70;95953.00;;;;5096304;28;20202;-55
2022/11/05 06:41:10;;;;;;;0.80;0.80;;;;;7.80;95961.00;;;;5096161;28;20274;-53
2022/11/05 06:43:37;;;;;;;0.80;0.80;;;;;7.80;95956.00;;;;5095940;28;20225;-53
2022/11/05 06:46:04;;;;;;;0.87;0.87;;;;;7.70;95957.00;;;;5096130;28;20184;-54
2022/11/05 06:48:34;;;;;;;0.90;0.90;;;;;7.80;95971.00;;;;5078151;28;20230;-55
2022/11/05 06:51:01;;;;;;;1.20;1.20;;;;;7.70;95978.00;;;;5096075;28;20209;-54
2022/11/05 06:53:28;;;;;;;0.83;0.83;;;;;7.80;95983.00;;;;5078068;28;20230;-57
2022/11/05 06:55:55;;;;;;;1.07;1.07;;;;;7.60;95978.00;;;;5096373;28;20219;-55
2022/11/05 06:58:22;;;;;;;0.73;0.73;;;;;7.60;95986.00;;;;5096120;28;20279;-55
2022/11/05 07:00:49;;;;;;;0.90;0.90;;;;;7.60;95990.00;;;;5095907;28;20206;-53
2022/11/05 07:03:16;;;;;;;1.80;1.70;;;;;7.60;95991.00;;;;5095890;28;20191;-60
2022/11/05 07:05:45;;;;;;;1.03;1.03;;;;;7.60;95994.00;;;;5095576;28;20232;-54
2022/11/05 07:08:16;;;;;;;1.30;1.20;;;;;7.70;96004.00;;;;5095678;28;20198;-55
2022/11/05 07:10:43;;;;;;;0.80;0.80;;;;;7.60;96007.00;;;;5095195;28;20217;-56
2022/11/05 07:13:09;;;;;;;1.17;1.17;;;;;7.70;96005.00;;;;5095545;28;20206;-54
2022/11/05 07:15:39;;;;;;;0.90;0.90;;;;;7.80;96010.00;;;;5095502;28;20198;-59
2022/11/05 07:18:06;;;;;;;1.40;1.33;;;;;7.70;96019.00;;;;5095575;28;20202;-61
2022/11/05 07:20:33;;;;;;;1.00;0.90;;;;;7.60;96013.00;;;;5077651;28;20274;-59
2022/11/05 07:23:03;;;;;;;0.60;0.60;;;;;7.70;96026.00;;;;5095383;28;20642;-55
2022/11/05 07:25:32;;;;;;;0.90;0.90;;;;;7.60;96022.00;;;;5095259;28;20316;-55
2022/11/05 07:27:59;;;;;;;1.37;1.33;;;;;7.60;96041.00;;;;5095422;28;20225;-56
2022/11/05 07:30:26;;;;;;;1.17;1.00;;;;;7.60;96026.00;;;;5095641;28;20198;-55
2022/11/05 07:32:53;;;;;;;1.40;1.40;;;;;7.60;96034.00;;;;5095551;28;21060;-54
2022/11/05 07:35:20;;;;;;;1.37;1.27;;;;;7.60;96034.00;;;;5077720;28;20248;-54
2022/11/05 07:37:49;;;;;;;0.77;0.77;;;;;7.60;96050.00;;;;5095174;28;20545;-53
2022/11/05 07:40:18;;;;;;;0.73;0.73;;;;;7.60;96057.00;;;;5095295;28;20198;-55
2022/11/05 07:42:46;;;;;;;1.17;1.13;;;;;7.60;96067.00;;;;5095218;28;20198;-56
2022/11/05 07:45:14;;;;;;;1.03;1.03;;;;;7.50;96065.00;;;;5095045;28;20718;-55
2022/11/05 07:47:46;;;;;;;0.90;0.90;;;;;7.50;96069.00;;;;5095153;28;20208;-53
2022/11/05 07:50:16;;;;;;;0.93;0.93;;;;;7.60;96070.00;;;;5094974;28;20221;-53
2022/11/05 07:52:43;;;;;;;1.43;1.37;;;;;7.50;96071.00;;;;5094976;28;20286;-53
2022/11/05 07:55:12;;;;;;;1.00;1.00;;;;;7.40;96075.00;;;;5076945;28;20282;-53
2022/11/05 07:57:42;;;;;;;0.73;0.73;;;;;7.40;96072.00;;;;5094859;28;20198;-53
2022/11/05 08:00:12;;;;;;;0.70;0.70;;;;;7.60;96083.00;;;;5094968;28;20278;-55
2022/11/05 08:02:39;;;;;;;0.90;0.90;;;;;7.70;96077.00;;;;5094926;28;20202;-57
2022/11/05 08:05:07;;;;;;;0.73;0.73;;;;;7.90;96089.00;;;;5077234;28;20227;-53
2022/11/05 08:07:34;;;;;;;0.70;0.70;;;;;7.90;96083.00;;;;5094920;28;20201;-54
2022/11/05 08:10:02;;;;;;;1.00;1.00;;;;;8.00;96093.00;;;;5094736;28;20216;-53
2022/11/05 08:12:29;;;;;;;0.70;0.70;;;;;8.00;96080.00;;;;5094609;28;20217;-53
2022/11/05 08:14:56;;;;;;;0.90;0.90;;;;;8.00;96095.00;;;;5094659;28;20216;-54
2022/11/05 08:17:23;;;;;;;0.90;0.90;;;;;8.00;96098.00;;;;5094658;28;20221;-55
2022/11/05 08:19:52;;;;;;;0.60;0.60;;;;;8.00;96101.00;;;;5094541;28;20282;-54
2022/11/05 08:22:21;;;;;;;1.20;1.10;;;;;8.00;96096.00;;;;5094418;28;20249;-52
2022/11/05 08:24:48;;;;;;;0.80;0.80;;;;;8.00;96097.00;;;;5076981;28;20229;-54
2022/11/05 08:27:15;;;;;;;1.00;1.00;;;;;8.10;96095.00;;;;5094343;28;20568;-53
2022/11/05 08:29:42;;;;;;;0.60;0.60;;;;;8.00;96099.00;;;;5094262;28;20191;-53
2022/11/05 08:32:09;;;;;;;0.73;0.73;;;;;8.30;96096.00;;;;5094366;28;20218;-58
2022/11/05 08:34:36;;;;;;;0.97;0.97;;;;;8.30;96100.00;;;;5094485;28;20251;-53
2022/11/05 08:37:04;;;;;;;0.93;0.93;;;;;8.40;96100.00;;;;5094358;28;20273;-53
2022/11/05 08:39:30;;;;;;;0.80;0.80;;;;;8.70;96102.00;;;;5094292;28;20210;-53
2022/11/05 08:41:57;;;;;;;0.80;0.80;;;;;9.00;96104.00;;;;5094337;28;20269;-55
2022/11/05 08:44:24;;;;;;;0.93;0.93;;;;;9.00;96100.00;;;;5094239;28;20225;-53
2022/11/05 08:46:51;;;;;;;0.80;0.80;;;;;9.10;96106.00;;;;5094276;28;20266;-52
2022/11/05 08:49:18;;;;;;;1.10;1.00;;;;;9.30;96116.00;;;;5076182;28;20596;-53
2022/11/05 08:51:45;;;;;;;0.60;0.60;;;;;9.10;96116.00;;;;5094288;28;20205;-57
2022/11/05 08:54:12;;;;;;;0.63;0.63;;;;;9.00;96111.00;;;;5076133;28;20318;-53
2022/11/05 08:56:39;;;;;;;0.60;0.60;;;;;8.80;96112.00;;;;5076316;28;20305;-55
2022/11/05 08:59:06;;;;;;;0.87;0.87;;;;;8.70;96116.00;;;;5093888;28;20222;-61
2022/11/05 09:01:33;;;;;;;0.70;0.70;;;;;8.90;96121.00;;;;5094042;28;20297;-58
2022/11/05 09:04:00;;;;;;;1.10;1.10;;;;;9.00;96122.00;;;;5075967;28;20261;-55
2022/11/05 09:06:27;;;;;;;0.77;0.77;;;;;9.00;96123.00;;;;5076179;28;20190;-55
2022/11/05 09:08:54;;;;;;;0.67;0.67;;;;;9.20;96121.00;;;;5093656;28;20711;-55
2022/11/05 09:11:21;;;;;;;1.03;1.03;;;;;9.30;96127.00;;;;5075899;28;20586;-53
2022/11/05 09:13:48;;;;;;;0.93;0.93;;;;;9.20;96126.00;;;;5093753;28;20199;-53
2022/11/05 09:16:20;;;;;;;0.73;0.73;;;;;9.20;96131.00;;;;5093801;28;20200;-54
2022/11/05 09:18:48;;;;;;;0.80;0.80;;;;;9.30;96125.00;;;;5093890;28;20194;-57
2022/11/05 09:21:15;;;;;;;0.67;0.67;;;;;9.30;96124.00;;;;5093526;28;20210;-53
2022/11/05 09:23:42;;;;;;;0.80;0.80;;;;;9.40;96130.00;;;;5075469;28;20201;-55
2022/11/05 09:26:12;;;;;;;0.53;0.53;;;;;9.50;96133.00;;;;5093377;28;20194;-52
2022/11/05 09:28:39;;;;;;;1.70;1.60;;;;;9.30;96136.00;;;;5093530;28;20195;-53
2022/11/05 09:31:08;;;;;;;2.23;1.53;;;;;9.20;96132.00;;;;5075920;28;20863;-54
2022/11/05 09:33:36;;;;;;;1.03;1.03;;;;;9.30;96140.00;;;;5093617;28;20187;-57
2022/11/05 09:36:04;;;;;;;0.90;0.90;;;;;9.20;96142.00;;;;5096730;28;20617;-53
2022/11/05 09:38:31;;;;;;;1.47;1.47;;;;;9.10;96148.00;;;;5097050;28;20194;-53
2022/11/05 09:41:01;;;;;;;1.13;1.13;;;;;9.10;96147.00;;;;5079188;28;20295;-53
2022/11/05 09:43:34;;;;;;;0.93;0.93;;;;;9.10;96159.00;;;;5079120;28;20226;-52
2022/11/05 09:46:08;;;;;;;0.80;0.80;;;;;8.90;96157.00;;;;5096921;28;20314;-52
2022/11/05 09:48:36;;;;;;;1.07;0.97;;;;;8.80;96127.00;;;;5096988;28;20228;-53
2022/11/05 09:51:05;;;;;;;0.90;0.90;;;;;8.60;96169.00;;;;5096791;28;20280;-53
2022/11/05 09:53:39;;;;;;;0.73;0.73;;;;;8.50;96168.00;;;;5097113;28;20194;-60
2022/11/05 09:56:18;;;;;;;0.83;0.83;;;;;8.60;96168.00;;;;5097041;28;20233;-54
2022/11/05 09:58:50;;;;;;;0.93;0.90;;;;;8.30;96172.00;;;;5097026;28;20198;-55
2022/11/05 10:01:21;;;;;;;0.93;0.93;;;;;8.40;96171.00;;;;5096884;28;20206;-58
2022/11/05 10:03:53;;;;;;;1.90;1.13;;;;;8.50;96180.00;;;;5096696;28;20194;-55
2022/11/05 10:06:23;;;;;;;0.80;0.80;;;;;8.50;96174.00;;;;5079063;28;20219;-54
2022/11/05 10:08:55;;;;;;;0.77;0.77;;;;;8.50;96188.00;;;;5096750;28;20216;-55
2022/11/05 10:11:24;;;;;;;1.13;1.13;;;;;8.60;96188.00;;;;5096503;28;20681;-54
2022/11/05 10:13:56;;;;;;;0.87;0.87;;;;;8.70;96191.00;;;;5096509;28;20301;-55
2022/11/05 10:16:29;;;;;;;1.70;1.60;;;;;8.70;96189.00;;;;5096629;28;20339;-57
2022/11/05 10:19:02;;;;;;;1.07;1.07;;;;;8.70;96197.00;;;;5096618;28;20205;-57
2022/11/05 10:21:31;;;;;;;1.43;1.17;;;;;8.80;96193.00;;;;5096460;28;20229;-55
2022/11/05 10:23:58;;;;;;;1.17;1.17;;;;;8.80;96195.00;;;;5096413;28;20917;-58
2022/11/05 10:26:27;;;;;;;0.80;0.80;;;;;8.80;96197.00;;;;5078750;28;20546;-57
2022/11/05 10:28:56;;;;;;;3.60;1.53;;;;;8.80;96204.00;;;;5096389;28;20199;-55
2022/11/05 10:31:29;;;;;;;1.13;1.00;;;;;8.90;96209.00;;;;5078416;28;20556;-55
2022/11/05 10:34:01;;;;;;;0.90;0.90;;;;;8.70;96202.00;;;;5096159;28;20199;-55
2022/11/05 10:36:30;;;;;;;1.43;1.33;;;;;8.60;96209.00;;;;5096160;28;20201;-56
2022/11/05 10:39:04;;;;;;;0.67;0.67;;;;;8.70;96213.00;;;;5078741;28;20528;-55
2022/11/05 10:41:44;;;;;;;1.20;1.20;;;;;8.80;96200.00;;;;5096082;28;20228;-56
2022/11/05 10:44:25;;;;;;;0.70;0.70;;;;;8.70;96204.00;;;;5096103;28;20622;-59
2022/11/05 10:47:05;;;;;;;1.07;1.07;;;;;8.80;96208.00;;;;5095010;28;20218;-56
2022/11/05 10:49:45;;;;;;;1.07;1.07;;;;;8.90;96215.00;;;;5096005;28;20236;-57
2022/11/05 10:52:21;;;;;;;1.10;1.10;;;;;8.80;96218.00;;;;5096020;28;20287;-54
2022/11/05 10:54:50;;;;;;;1.00;1.00;;;;;8.90;96209.00;;;;5095945;28;20226;-55
2022/11/05 10:57:29;;;;;;;0.60;0.60;;;;;9.00;96217.00;;;;5095648;28;20191;-54
2022/11/05 11:00:22;;;;;;;0.70;0.70;;;;;8.90;96218.00;;;;5095786;28;20274;-53
2022/11/05 11:02:51;;;;;;;4.17;2.10;;;;;9.00;96212.00;;;;5078066;28;20305;-53
2022/11/05 11:05:21;;;;;;;4.00;1.33;;;;;9.10;96214.00;;;;5095930;28;20309;-53
2022/11/05 11:08:01;;;;;;;0.93;0.93;;;;;9.20;96217.00;;;;5095889;28;20219;-56
2022/11/05 11:10:30;;;;;;;1.53;1.43;;;;;9.20;96215.00;;;;5095800;28;20355;-56
2022/11/05 11:12:57;;;;;;;0.93;0.93;;;;;9.30;96221.00;;;;5095688;28;20661;-55
2022/11/05 11:15:27;;;;;;;0.90;0.90;;;;;9.40;96219.00;;;;5078029;28;20206;-54
2022/11/05 11:17:55;;;;;;;2.43;1.97;;;;;9.60;96213.00;;;;5095737;28;20201;-54
2022/11/05 11:20:27;;;;;;;0.70;0.70;;;;;9.60;96201.00;;;;5095705;28;20203;-52
2022/11/05 11:23:09;;;;;;;1.20;1.13;;;;;9.90;96207.00;;;;5095480;28;20194;-52
2022/11/05 11:25:45;;;;;;;1.20;1.20;;;;;9.90;96219.00;;;;5095613;28;20218;-52
2022/11/05 11:28:21;;;;;;;1.43;1.33;;;;;9.70;96218.00;;;;5077803;28;20195;-53
2022/11/05 11:30:56;;;;;;;1.03;1.03;;;;;9.70;96219.00;;;;5095528;28;20225;-56
2022/11/05 11:33:26;;;;;;;0.80;0.80;;;;;9.70;96219.00;;;;5095438;28;20217;-54
2022/11/05 11:35:54;;;;;;;1.50;1.40;;;;;9.60;96218.00;;;;5095344;28;20194;-53
2022/11/05 11:38:25;;;;;;;0.90;0.90;;;;;9.60;96214.00;;;;5095242;28;20316;-54
2022/11/05 11:41:02;;;;;;;1.00;0.90;;;;;9.60;96211.00;;;;5095081;28;20206;-53
2022/11/05 11:43:33;;;;;;;1.03;1.03;;;;;9.60;96216.00;;;;5077373;28;20258;-52
2022/11/05 11:46:03;;;;;;;0.87;0.87;;;;;9.80;96217.00;;;;5095193;28;20283;-54
2022/11/05 11:48:33;;;;;;;1.20;0.87;;;;;9.70;96218.00;;;;5095194;28;20234;-54
2022/11/05 11:51:16;;;;;;;1.10;1.10;;;;;9.80;96222.00;;;;5095018;28;20677;-52
2022/11/05 11:53:43;;;;;;;0.60;0.60;;;;;9.80;96219.00;;;;5095080;28;20205;-54
2022/11/05 11:56:16;;;;;;;0.53;0.53;;;;;9.80;96228.00;;;;5094881;28;20218;-53
2022/11/05 11:58:46;;;;;;;0.70;0.70;;;;;9.70;96231.00;;;;5076798;28;20206;-54
2022/11/05 12:02:01;;;;;;;0.70;0.70;;;10.30;80.30;9.60;96221.00;;;;5077006;28;20218;-52
2022/11/05 12:04:51;;;;;;;1.10;1.10;;;10.30;81.00;9.60;96215.00;;;;5093984;28;20256;-54
2022/11/05 12:07:40;;;;;;;0.97;0.97;;;10.40;82.90;9.80;96227.00;;;;5094874;28;20289;-53
2022/11/05 12:10:27;;;;;;;0.80;0.80;;;10.40;83.90;9.90;96210.00;;;;5093952;28;20222;-56
2022/11/05 12:13:22;;;;;;;0.60;0.60;;;10.40;82.60;9.80;96228.00;;;;5095070;28;20198;-53
2022/11/05 12:15:53;;;;;;;0.93;0.93;;;10.50;79.70;9.70;96221.00;;;;5094753;28;20214;-55
2022/11/05 12:18:34;;;;;;;0.80;0.80;;;10.40;80.20;9.80;96213.00;;;;5094846;28;20210;-56
2022/11/05 12:21:13;;;;;;;1.07;1.07;;;;;9.90;96215.00;;;;5094688;28;20287;-56
2022/11/05 12:24:13;;;;;;;0.77;0.77;;;10.50;80.00;9.90;96211.00;;;;5094771;28;20201;-55
2022/11/05 12:26:59;;;;;;;0.60;0.60;;;10.50;80.70;10.30;96207.00;;;;5062266;28;20533;-55
2022/11/05 12:29:43;;;;;;;1.27;1.27;;;10.70;80.60;10.40;96216.00;;;;5076778;28;20309;-54
2022/11/05 12:32:55;;;;;;;1.03;1.03;;;10.90;79.40;10.40;96219.00;;;;5094670;28;20246;-54
2022/11/05 12:35:41;;;;;;;1.20;1.20;;;10.90;79.70;10.20;96200.00;;;;5094515;28;20195;-58
2022/11/05 12:38:23;;;;;;;1.50;1.43;;;10.80;77.90;10.00;96216.00;;;;5093324;28;20616;-55
2022/11/05 12:41:17;;;;;;;0.80;0.80;;;10.50;78.40;9.80;96216.00;;;;5094339;28;20630;-56
2022/11/05 12:44:02;;;;;;;1.37;1.27;;;10.50;78.80;9.30;96216.00;;;;5093886;28;20229;-58
2022/11/05 12:46:39;;;;;;;0.70;0.70;;;10.20;79.60;9.40;96212.00;;;;5094263;28;20275;-55
2022/11/05 12:49:43;;;;;;;1.37;1.30;;;10.10;81.80;9.50;96223.00;;;;5094284;28;20202;-56
2022/11/05 12:52:41;;;;;;;1.60;1.50;;;10.20;80.80;9.50;96211.00;;;;5094123;28;20235;-55
2022/11/05 12:55:15;;;;;;;1.13;1.13;;;10.20;81.90;9.50;96219.00;;;;5094353;28;20282;-57
2022/11/05 12:57:45;;;;;;;0.70;0.70;;;;;9.10;96219.00;;;;5094156;28;20269;-56
2022/11/05 13:00:19;;;;;;;1.00;1.00;;;9.80;80.80;9.00;96223.00;;;;5094051;28;20202;-57
2022/11/05 13:02:55;;;;;;;0.90;0.90;;;9.70;81.80;9.00;96231.00;;;;5076268;28;20198;-54
2022/11/05 13:05:37;;;;;;;1.67;1.10;;;9.60;81.00;8.80;96214.00;;;;5093926;28;20601;-53
2022/11/05 13:08:11;;;;;;;1.20;1.20;;;9.60;82.10;8.80;96229.00;;;;5093749;28;20284;-57
2022/11/05 13:10:44;;;;;;;0.63;0.63;;;9.40;80.10;8.60;96228.00;;;;5093136;28;20682;-56
2022/11/05 13:13:22;;;;;;;1.33;1.27;;;9.40;81.10;8.60;96227.00;;;;5093847;28;20498;-54
2022/11/05 13:15:54;;;;;;;0.87;0.87;;;9.40;81.80;8.70;96227.00;;;;5093975;28;20190;-54
2022/11/05 13:18:28;;;;;;;0.90;0.90;;;9.40;81.70;8.50;96216.00;;;;5076182;28;20272;-55